Friendswood, Texas
Current Conditions -  °F | °C
As of 3:53 PM on Monday 24 Nov 2014 (Local Time) from KLVJ Reporting Station
Few Clouds Few Clouds  
Wind Chill: 65°   Ceiling: Unl
Heat Index: 65°   Visibility: 10mi
Dew Point: 30°   Wind: 9mph
Humidity: 27%   Direction: 20°NNE
Pressure: 30.02"   Gusts: NA
Location:  29.53°N, 95.2°W
Report Text: KLVJ 242153Z AUTO 02008KT 10SM FEW110 18/M01 A3002 RMK AO2 SLP164 T01831011
Loading
Personal Weather Stations






























Interactive Weather Map New forecast layout! Learn more

10-Day Weather Forecast

Advertisements
Track Severe Weather on mobile